This is the latest recevied weather packets stored in our database for station/object TA5KA. If no packets are shown the sender has not sent any weather packets the latest 10 day(s).
| Time | Temp. | Humidity | Pressure | Rain* | Wind** | Luminosity | Snow |
|---|---|---|---|---|---|---|---|
| 1778175398 | 14.44° C | 59% | 1020 hPa | 0 mm | - | - | - |
| 1778174876 | 16.67° C | 51% | 1020 hPa | 0 mm | - | - | - |
| 1778174797 | 16.67° C | 51% | 1020 hPa | 0 mm | - | - | - |
| 1778174275 | 16.67° C | 51% | 1020 hPa | 0 mm | - | - | - |
| 1778174195 | 16.67° C | 51% | 1020 hPa | 0 mm | - | - | - |
| 1778173673 | 16.11° C | 51% | 1020 hPa | 0 mm | - | - | - |
| 1778173594 | 16.11° C | 51% | 1020 hPa | 0 mm | - | - | - |
| 1778173072 | 16.11° C | 51% | 1020 hPa | 0 mm | - | - | - |
| 1778172992 | 16.11° C | 51% | 1020 hPa | 0 mm | - | - | - |
| 1778172470 | 16.11° C | 51% | 1020 hPa | 0 mm | - | - | - |
| 1778172391 | 16.11° C | 51% | 1020 hPa | 0 mm | - | - | - |
| 1778171868 | 16.67° C | 51% | 1020 hPa | 0 mm | - | - | - |
| 1778171790 | 16.67° C | 51% | 1020 hPa | 0 mm | - | - | - |
| 1778171267 | 18.33° C | 39% | 1020 hPa | 0 mm | - | - | - |
| 1778171189 | 18.33° C | 39% | 1020 hPa | 0 mm | - | - | - |
| 1778170666 | 18.33° C | 34% | 1020 hPa | 0 mm | - | - | - |
| 1778170587 | 18.33° C | 34% | 1020 hPa | 0 mm | - | - | - |
| 1778170065 | 18.33° C | 34% | 1020 hPa | 0 mm | - | - | - |
| 1778169986 | 18.33° C | 34% | 1020 hPa | 0 mm | - | - | - |
| 1778169463 | 18.33° C | 34% | 1020 hPa | 0 mm | - | - | - |
| 1778169384 | 18.33° C | 34% | 1020 hPa | 0 mm | - | - | - |
| 1778168862 | 15.56° C | 45% | 1018 hPa | 0 mm | - | - | - |
| 1778168783 | 15.56° C | 45% | 1018 hPa | 0 mm | - | - | - |
| 1778168260 | 18.33° C | 34% | 1020 hPa | 0 mm | - | - | - |
| 1778168181 | 18.33° C | 34% | 1020 hPa | 0 mm | - | - | - |
* Rain latest hour (hover to see other rain measurements)
** Current wind speed in m/s (hover to see current wind gust speed)